createdAt,value
2017-10-29T00:00:43.660Z,0
2017-10-29T00:01:53.021Z,0
2017-10-29T00:03:02.718Z,0
2017-10-29T00:04:11.439Z,0
2017-10-29T00:05:20.780Z,0
2017-10-29T00:06:30.147Z,0
2017-10-29T00:07:39.177Z,0
2017-10-29T00:08:48.538Z,0
2017-10-29T00:09:57.570Z,0
2017-10-29T00:11:06.268Z,0
2017-10-29T00:12:15.296Z,0
2017-10-29T00:13:24.330Z,0
2017-10-29T00:14:33.694Z,0
2017-10-29T00:15:43.062Z,0
2017-10-29T00:16:52.091Z,0
2017-10-29T00:18:01.456Z,0
2017-10-29T00:19:10.483Z,0
2017-10-29T00:20:19.178Z,0
2017-10-29T00:21:27.873Z,0
2017-10-29T00:22:36.567Z,0
2017-10-29T00:23:45.597Z,0
2017-10-29T00:24:54.297Z,0
2017-10-29T00:26:02.991Z,0
2017-10-29T00:27:12.357Z,0
2017-10-29T00:28:21.727Z,0
2017-10-29T00:29:31.095Z,0
2017-10-29T00:30:40.792Z,0
2017-10-29T00:31:50.155Z,0
2017-10-29T00:32:59.180Z,0
2017-10-29T00:34:07.879Z,0
2017-10-29T00:35:16.908Z,0
2017-10-29T00:36:26.269Z,0
2017-10-29T00:37:35.299Z,0
2017-10-29T00:38:44.328Z,0
2017-10-29T00:39:53.353Z,0
2017-10-29T00:41:02.388Z,0
2017-10-29T00:42:11.753Z,0
2017-10-29T00:43:20.450Z,0
2017-10-29T00:44:30.149Z,0
2017-10-29T00:45:39.846Z,0
2017-10-29T00:46:49.206Z,0
2017-10-29T00:47:59.257Z,0
2017-10-29T00:49:08.626Z,0
2017-10-29T00:50:17.325Z,0
2017-10-29T00:51:26.354Z,0
2017-10-29T00:52:35.054Z,0
2017-10-29T00:53:44.082Z,0
2017-10-29T00:54:53.124Z,0
2017-10-29T00:56:02.151Z,0
2017-10-29T00:57:11.524Z,0
2017-10-29T00:58:20.221Z,0
2017-10-29T00:59:28.921Z,0
2017-10-29T01:00:37.953Z,0
2017-10-29T01:01:46.986Z,0
2017-10-29T01:02:56.346Z,0
2017-10-29T01:04:05.377Z,0
2017-10-29T01:05:14.742Z,0
2017-10-29T01:06:24.105Z,0
2017-10-29T01:07:33.135Z,0
2017-10-29T01:08:41.831Z,0
2017-10-29T01:09:51.189Z,0
2017-10-29T01:10:59.890Z,0
2017-10-29T01:12:09.254Z,0
2017-10-29T01:13:18.324Z,0
2017-10-29T01:14:28.032Z,0
2017-10-29T01:15:36.737Z,0
2017-10-29T01:16:45.756Z,0
2017-10-29T01:17:54.787Z,0
2017-10-29T01:19:04.150Z,0
2017-10-29T01:20:13.190Z,0
2017-10-29T01:21:21.888Z,0
2017-10-29T01:22:30.586Z,0
2017-10-29T01:23:39.287Z,0
2017-10-29T01:24:48.318Z,0
2017-10-29T01:25:58.017Z,0
2017-10-29T01:27:06.714Z,0
2017-10-29T01:28:15.413Z,0
2017-10-29T01:29:24.451Z,0
2017-10-29T01:30:34.153Z,0
2017-10-29T01:31:43.521Z,0
2017-10-29T01:32:52.548Z,0
2017-10-29T01:34:01.248Z,0
2017-10-29T01:35:09.940Z,0
2017-10-29T01:36:18.992Z,0
2017-10-29T01:37:28.352Z,0
2017-10-29T01:38:37.711Z,0
2017-10-29T01:39:47.081Z,0
2017-10-29T01:40:56.447Z,0
2017-10-29T01:42:05.480Z,0
2017-10-29T01:43:14.511Z,0
2017-10-29T01:44:23.209Z,0
2017-10-29T01:45:32.238Z,0
2017-10-29T01:46:41.263Z,0
2017-10-29T01:47:50.297Z,0
2017-10-29T01:48:58.994Z,0
2017-10-29T01:50:08.030Z,0
2017-10-29T01:51:17.061Z,0
2017-10-29T01:52:26.431Z,0
2017-10-29T01:53:35.788Z,0
2017-10-29T01:54:44.816Z,0
2017-10-29T01:55:54.180Z,0
2017-10-29T01:57:03.874Z,0
2017-10-29T01:58:12.569Z,0
2017-10-29T01:59:22.594Z,0
2017-10-29T02:00:31.949Z,0
2017-10-29T02:01:41.649Z,0
2017-10-29T02:02:50.685Z,0
2017-10-29T02:04:00.049Z,0
2017-10-29T02:05:09.081Z,0
2017-10-29T02:06:17.776Z,0
2017-10-29T02:07:27.151Z,0
2017-10-29T02:08:36.851Z,0
2017-10-29T02:09:45.544Z,0
2017-10-29T02:10:54.572Z,0
2017-10-29T02:12:03.606Z,0
2017-10-29T02:13:12.307Z,0
2017-10-29T02:14:21.341Z,0
2017-10-29T02:15:30.369Z,0
2017-10-29T02:16:39.731Z,0
2017-10-29T02:17:48.761Z,0
2017-10-29T02:18:57.791Z,0
2017-10-29T02:20:07.157Z,0
2017-10-29T02:21:16.521Z,0
2017-10-29T02:22:25.218Z,0
2017-10-29T02:23:34.254Z,0
2017-10-29T02:24:43.631Z,0
2017-10-29T02:25:52.991Z,0
2017-10-29T02:27:02.359Z,0
2017-10-29T02:28:11.056Z,0
2017-10-29T02:29:20.421Z,0
2017-10-29T02:30:29.453Z,0
2017-10-29T02:31:38.823Z,0
2017-10-29T02:32:48.183Z,0
2017-10-29T02:33:57.545Z,0
2017-10-29T02:35:06.912Z,0
2017-10-29T02:36:16.281Z,0
2017-10-29T02:37:25.978Z,0
2017-10-29T02:38:35.005Z,0
2017-10-29T02:39:44.362Z,0
2017-10-29T02:40:53.400Z,0
2017-10-29T02:42:02.099Z,0
2017-10-29T02:43:10.794Z,0
2017-10-29T02:44:19.491Z,0
2017-10-29T02:45:28.190Z,0
2017-10-29T02:46:37.552Z,0
2017-10-29T02:47:46.251Z,0
2017-10-29T02:48:54.949Z,0
2017-10-29T02:50:04.314Z,0
2017-10-29T02:51:13.013Z,0
2017-10-29T02:52:22.711Z,0
2017-10-29T02:53:32.079Z,0
2017-10-29T02:54:41.442Z,0
2017-10-29T02:55:51.133Z,0
2017-10-29T02:57:00.492Z,0
2017-10-29T02:58:09.875Z,0
2017-10-29T02:59:19.569Z,0
2017-10-29T03:00:28.931Z,0
2017-10-29T03:01:37.961Z,0
2017-10-29T03:02:46.657Z,0
2017-10-29T03:03:56.028Z,0
2017-10-29T03:05:05.062Z,0
2017-10-29T03:06:14.762Z,0
2017-10-29T03:07:23.794Z,0
2017-10-29T03:08:33.157Z,0
2017-10-29T03:09:42.522Z,0
2017-10-29T03:10:51.550Z,0
2017-10-29T03:12:00.245Z,0
2017-10-29T03:13:08.945Z,0
2017-10-29T03:14:17.640Z,0
2017-10-29T03:15:26.335Z,0
2017-10-29T03:16:35.034Z,0
2017-10-29T03:17:44.396Z,0
2017-10-29T03:18:53.427Z,0
2017-10-29T03:20:02.461Z,0
2017-10-29T03:21:11.488Z,0
2017-10-29T03:22:20.186Z,0
2017-10-29T03:23:29.548Z,0
2017-10-29T03:24:38.571Z,0
2017-10-29T03:25:47.605Z,0
2017-10-29T03:26:56.642Z,0
2017-10-29T03:28:05.672Z,0
2017-10-29T03:29:14.701Z,0
2017-10-29T03:30:23.401Z,0
2017-10-29T03:31:32.430Z,0
2017-10-29T03:32:41.453Z,0
2017-10-29T03:33:51.485Z,0
2017-10-29T03:35:00.184Z,0
2017-10-29T03:36:09.539Z,0
2017-10-29T03:37:18.236Z,0
2017-10-29T03:38:27.596Z,0
2017-10-29T03:39:36.298Z,0
2017-10-29T03:40:45.330Z,0
2017-10-29T03:41:54.692Z,0
2017-10-29T03:43:03.728Z,0
2017-10-29T03:44:13.430Z,0
2017-10-29T03:45:22.124Z,0
2017-10-29T03:46:31.492Z,0
2017-10-29T03:47:41.199Z,0
2017-10-29T03:48:50.569Z,0
2017-10-29T03:49:59.265Z,0
2017-10-29T03:51:08.294Z,0
2017-10-29T03:52:16.996Z,0
2017-10-29T03:53:26.032Z,0
2017-10-29T03:54:35.058Z,0
2017-10-29T03:55:44.422Z,0
2017-10-29T03:56:54.117Z,0
2017-10-29T03:58:03.140Z,0
2017-10-29T03:59:12.173Z,0
2017-10-29T04:00:21.207Z,0
2017-10-29T04:01:30.569Z,0
2017-10-29T04:02:40.262Z,0
2017-10-29T04:03:49.978Z,0
2017-10-29T04:04:59.352Z,0
2017-10-29T04:06:08.721Z,0
2017-10-29T04:07:18.086Z,0
2017-10-29T04:08:27.119Z,0
2017-10-29T04:09:36.478Z,0
2017-10-29T04:10:45.839Z,0
2017-10-29T04:11:55.535Z,0
2017-10-29T04:13:04.226Z,0
2017-10-29T04:14:12.922Z,0
2017-10-29T04:15:22.618Z,0
2017-10-29T04:16:32.655Z,0
2017-10-29T04:17:42.017Z,0
2017-10-29T04:18:51.051Z,0
2017-10-29T04:19:59.749Z,0
2017-10-29T04:21:08.785Z,0
2017-10-29T04:22:18.146Z,0
2017-10-29T04:23:27.179Z,0
2017-10-29T04:24:36.216Z,0
2017-10-29T04:25:44.914Z,0
2017-10-29T04:26:54.277Z,0
2017-10-29T04:28:03.636Z,0
2017-10-29T04:29:12.670Z,0
2017-10-29T04:30:21.364Z,0
2017-10-29T04:31:30.060Z,0
2017-10-29T04:32:39.088Z,0
2017-10-29T04:33:48.123Z,0
2017-10-29T04:34:56.825Z,0
2017-10-29T04:36:05.852Z,0
2017-10-29T04:37:14.551Z,0
2017-10-29T04:38:23.251Z,0
2017-10-29T04:39:32.963Z,0
2017-10-29T04:40:41.993Z,0
2017-10-29T04:41:51.351Z,0
2017-10-29T04:43:00.380Z,0
2017-10-29T04:44:10.083Z,0
2017-10-29T04:45:19.473Z,0
2017-10-29T04:46:28.806Z,0
2017-10-29T04:47:37.835Z,0
2017-10-29T04:48:47.198Z,0
2017-10-29T04:49:56.224Z,0
2017-10-29T04:51:05.263Z,0
2017-10-29T04:52:14.962Z,0
2017-10-29T04:53:23.985Z,0
2017-10-29T04:54:33.019Z,0
2017-10-29T04:55:42.382Z,0
2017-10-29T04:56:51.409Z,0
2017-10-29T04:58:00.105Z,0
2017-10-29T04:59:10.129Z,0
2017-10-29T05:00:18.824Z,0
2017-10-29T05:01:28.186Z,0
2017-10-29T05:02:37.549Z,0
2017-10-29T05:03:46.913Z,0
2017-10-29T05:04:56.611Z,0
2017-10-29T05:06:05.316Z,0
2017-10-29T05:07:14.011Z,0
2017-10-29T05:08:23.712Z,0
2017-10-29T05:09:32.411Z,0
2017-10-29T05:10:42.440Z,0
2017-10-29T05:11:51.467Z,0
2017-10-29T05:13:00.493Z,0
2017-10-29T05:14:09.522Z,0
2017-10-29T05:15:18.222Z,0
2017-10-29T05:16:27.581Z,0
2017-10-29T05:17:37.277Z,0
2017-10-29T05:18:46.643Z,0
2017-10-29T05:19:56.005Z,0
2017-10-29T05:21:05.033Z,0
2017-10-29T05:22:14.063Z,0
2017-10-29T05:23:23.753Z,0
2017-10-29T05:24:32.782Z,0
2017-10-29T05:25:42.141Z,0
2017-10-29T05:26:51.504Z,0
2017-10-29T05:28:00.537Z,0
2017-10-29T05:29:10.232Z,0
2017-10-29T05:30:19.263Z,0
2017-10-29T05:31:27.961Z,0
2017-10-29T05:32:37.006Z,0
2017-10-29T05:33:45.705Z,0
2017-10-29T05:34:55.067Z,0
2017-10-29T05:36:04.430Z,0
2017-10-29T05:37:13.472Z,0
2017-10-29T05:38:22.836Z,0
2017-10-29T05:39:32.210Z,0
2017-10-29T05:40:41.236Z,0
2017-10-29T05:41:50.933Z,0
2017-10-29T05:42:59.956Z,0
2017-10-29T05:44:09.649Z,0
2017-10-29T05:45:19.017Z,0
2017-10-29T05:46:28.053Z,0
2017-10-29T05:47:37.086Z,0
2017-10-29T05:48:45.784Z,0
2017-10-29T05:49:54.812Z,0
2017-10-29T05:51:03.842Z,0
2017-10-29T05:52:12.872Z,0
2017-10-29T05:53:22.571Z,0
2017-10-29T05:54:32.277Z,0
2017-10-29T05:55:41.312Z,0
2017-10-29T05:56:51.012Z,0
2017-10-29T05:58:00.041Z,0
2017-10-29T05:59:09.069Z,0
2017-10-29T06:00:18.097Z,0
2017-10-29T06:01:27.123Z,0
2017-10-29T06:02:36.153Z,0
2017-10-29T06:03:45.524Z,0
2017-10-29T06:04:54.891Z,0
2017-10-29T06:06:03.936Z,0
2017-10-29T06:07:12.633Z,0
2017-10-29T06:08:22.331Z,0
2017-10-29T06:09:31.357Z,4
2017-10-29T06:10:40.394Z,4
2017-10-29T06:11:49.763Z,0
2017-10-29T06:12:58.465Z,4
2017-10-29T06:14:07.499Z,4
2017-10-29T06:15:16.865Z,4
2017-10-29T06:16:26.234Z,4
2017-10-29T06:17:35.595Z,4
2017-10-29T06:18:44.625Z,4
2017-10-29T06:19:53.325Z,4
2017-10-29T06:21:02.690Z,8
2017-10-29T06:22:11.388Z,8
2017-10-29T06:23:20.420Z,8
2017-10-29T06:24:29.779Z,12
2017-10-29T06:25:38.816Z,12
2017-10-29T06:26:47.843Z,12
2017-10-29T06:27:57.201Z,16
2017-10-29T06:29:06.225Z,16
2017-10-29T06:30:15.917Z,16
2017-10-29T06:31:24.952Z,16
2017-10-29T06:32:33.996Z,16
2017-10-29T06:33:42.681Z,16
2017-10-29T06:34:51.703Z,20
2017-10-29T06:36:00.731Z,24
2017-10-29T06:37:09.427Z,20
2017-10-29T06:38:18.122Z,12
2017-10-29T06:39:26.821Z,8
2017-10-29T06:40:36.183Z,8
2017-10-29T06:41:45.547Z,12
2017-10-29T06:42:54.582Z,16
2017-10-29T06:44:03.960Z,20
2017-10-29T06:45:13.323Z,12
2017-10-29T06:46:23.014Z,16
2017-10-29T06:47:31.712Z,24
2017-10-29T06:48:40.747Z,28
2017-10-29T06:49:50.445Z,32
2017-10-29T06:51:00.153Z,36
2017-10-29T06:52:08.850Z,28
2017-10-29T06:53:17.547Z,24
2017-10-29T06:54:26.927Z,24
2017-10-29T06:55:36.305Z,24
2017-10-29T06:56:45.675Z,28
2017-10-29T06:57:55.035Z,24
2017-10-29T06:59:04.402Z,24
2017-10-29T07:00:13.100Z,36
2017-10-29T07:01:22.472Z,32
2017-10-29T07:02:31.507Z,32
2017-10-29T07:03:40.538Z,32
2017-10-29T07:04:49.236Z,28
2017-10-29T07:05:58.595Z,36
2017-10-29T07:07:07.626Z,24
2017-10-29T07:08:16.650Z,20
2017-10-29T07:09:25.677Z,16
2017-10-29T07:10:34.704Z,16
2017-10-29T07:11:44.072Z,16
2017-10-29T07:12:52.762Z,16
2017-10-29T07:14:01.459Z,20
2017-10-29T07:15:10.493Z,24
2017-10-29T07:16:19.525Z,32
2017-10-29T07:17:28.555Z,36
2017-10-29T07:18:37.262Z,40
2017-10-29T07:19:46.290Z,40
2017-10-29T07:20:55.648Z,40
2017-10-29T07:22:04.344Z,68
2017-10-29T07:23:13.376Z,64
2017-10-29T07:24:22.405Z,56
2017-10-29T07:25:31.795Z,88
2017-10-29T07:26:41.500Z,116
2017-10-29T07:27:50.870Z,152
2017-10-29T07:29:00.233Z,120
2017-10-29T07:30:09.261Z,108
2017-10-29T07:31:18.288Z,1108
2017-10-29T07:32:27.648Z,140
2017-10-29T07:33:36.349Z,108
2017-10-29T07:34:45.047Z,80
2017-10-29T07:35:53.743Z,76
2017-10-29T07:37:02.438Z,84
2017-10-29T07:38:11.469Z,108
2017-10-29T07:39:20.168Z,156
2017-10-29T07:40:29.196Z,608
2017-10-29T07:41:37.896Z,656
2017-10-29T07:42:46.926Z,688
2017-10-29T07:43:55.954Z,684
2017-10-29T07:45:04.992Z,656
2017-10-29T07:46:14.019Z,652
2017-10-29T07:47:22.716Z,604
2017-10-29T07:48:31.748Z,568
2017-10-29T07:49:40.444Z,556
2017-10-29T07:50:49.474Z,632
2017-10-29T07:51:58.177Z,648
2017-10-29T07:53:07.872Z,536
2017-10-29T07:54:17.231Z,240
2017-10-29T07:55:26.260Z,212
2017-10-29T07:56:35.294Z,172
2017-10-29T07:57:43.989Z,152
2017-10-29T07:58:53.347Z,124
2017-10-29T08:00:02.378Z,120
2017-10-29T08:01:11.075Z,164
2017-10-29T08:02:20.455Z,188
2017-10-29T08:03:29.495Z,392
2017-10-29T08:04:38.524Z,252
2017-10-29T08:05:47.558Z,208
2017-10-29T08:06:56.257Z,348
2017-10-29T08:08:05.285Z,216
2017-10-29T08:09:13.983Z,248
2017-10-29T08:10:22.682Z,244
2017-10-29T08:11:32.393Z,616
2017-10-29T08:12:41.402Z,612
2017-10-29T08:13:51.102Z,532
2017-10-29T08:14:59.801Z,284
2017-10-29T08:16:09.497Z,244
2017-10-29T08:17:18.533Z,140
2017-10-29T08:18:28.230Z,84
2017-10-29T08:19:36.929Z,80
2017-10-29T08:20:45.629Z,76
2017-10-29T08:21:54.989Z,60
2017-10-29T08:23:04.358Z,64
2017-10-29T08:24:13.394Z,120
2017-10-29T08:25:22.423Z,188
2017-10-29T08:26:31.454Z,376
2017-10-29T08:27:40.491Z,672
2017-10-29T08:28:49.521Z,324
2017-10-29T08:29:58.881Z,508
2017-10-29T08:31:08.916Z,480
2017-10-29T08:32:18.279Z,688
2017-10-29T08:33:26.980Z,340
2017-10-29T08:34:36.362Z,400
2017-10-29T08:35:45.399Z,540
2017-10-29T08:36:54.436Z,700
2017-10-29T08:38:04.132Z,672
2017-10-29T08:39:13.495Z,704
2017-10-29T08:40:22.862Z,752
2017-10-29T08:41:32.223Z,760
2017-10-29T08:42:41.252Z,844
2017-10-29T08:43:50.619Z,568
2017-10-29T08:44:59.653Z,940
2017-10-29T08:46:08.688Z,468
2017-10-29T08:47:18.056Z,308
2017-10-29T08:48:27.083Z,272
2017-10-29T08:49:36.118Z,216
2017-10-29T08:50:44.817Z,232
2017-10-29T08:51:53.512Z,216
2017-10-29T08:53:02.871Z,184
2017-10-29T08:54:11.898Z,240
2017-10-29T08:55:20.935Z,224
2017-10-29T08:56:29.974Z,144
2017-10-29T08:57:39.680Z,72
2017-10-29T08:58:49.051Z,52
2017-10-29T08:59:58.758Z,120
2017-10-29T09:01:08.128Z,280
2017-10-29T09:02:17.316Z,500
2017-10-29T09:03:26.361Z,320
2017-10-29T09:04:35.389Z,300
2017-10-29T09:05:44.417Z,208
2017-10-29T09:06:53.454Z,328
2017-10-29T09:08:02.483Z,352
2017-10-29T09:09:11.183Z,396
2017-10-29T09:10:20.220Z,392
2017-10-29T09:11:28.925Z,400
2017-10-29T09:12:37.965Z,364
2017-10-29T09:13:46.665Z,420
2017-10-29T09:14:56.374Z,368
2017-10-29T09:16:05.409Z,368
2017-10-29T09:17:14.778Z,2528
2017-10-29T09:18:23.817Z,468
2017-10-29T09:19:33.187Z,2392
2017-10-29T09:20:41.888Z,588
2017-10-29T09:21:50.592Z,508
2017-10-29T09:22:59.629Z,1068
2017-10-29T09:24:08.683Z,508
2017-10-29T09:25:17.377Z,288
2017-10-29T09:26:26.077Z,280
2017-10-29T09:27:35.444Z,260
2017-10-29T09:28:44.474Z,200
2017-10-29T09:29:53.506Z,404
2017-10-29T09:31:02.542Z,1096
2017-10-29T09:32:11.580Z,256
2017-10-29T09:33:20.609Z,208
2017-10-29T09:34:29.644Z,652
2017-10-29T09:35:38.345Z,2468
2017-10-29T09:36:47.370Z,2700
2017-10-29T09:37:56.403Z,528
2017-10-29T09:39:06.097Z,2900
2017-10-29T09:40:15.472Z,2972
2017-10-29T09:41:24.177Z,2616
2017-10-29T09:42:33.876Z,440
2017-10-29T09:43:42.914Z,564
2017-10-29T09:44:51.944Z,1112
2017-10-29T09:46:00.978Z,2140
2017-10-29T09:47:09.680Z,1636
2017-10-29T09:48:19.385Z,528
2017-10-29T09:49:28.753Z,2196
2017-10-29T09:50:38.114Z,2400
2017-10-29T09:51:46.814Z,576
2017-10-29T09:52:55.514Z,896
2017-10-29T09:54:05.202Z,720
2017-10-29T09:55:14.601Z,2384
2017-10-29T09:56:23.981Z,1300
2017-10-29T09:57:33.671Z,408
2017-10-29T09:58:42.704Z,2712
2017-10-29T09:59:51.407Z,2688
2017-10-29T10:01:00.104Z,2920
2017-10-29T10:02:09.138Z,1024
2017-10-29T10:03:18.852Z,320
2017-10-29T10:04:27.541Z,288
2017-10-29T10:05:36.575Z,1856
2017-10-29T10:06:45.279Z,312
2017-10-29T10:07:54.970Z,2932
2017-10-29T10:09:04.346Z,488
2017-10-29T10:10:13.714Z,752
2017-10-29T10:11:23.096Z,1060
2017-10-29T10:12:32.463Z,416
2017-10-29T10:13:42.503Z,624
2017-10-29T10:14:51.203Z,332
2017-10-29T10:16:00.238Z,3068
2017-10-29T10:17:09.280Z,388
2017-10-29T10:18:18.323Z,492
2017-10-29T10:19:27.360Z,696
2017-10-29T10:20:36.401Z,3068
2017-10-29T10:21:45.436Z,2476
2017-10-29T10:22:54.471Z,448
2017-10-29T10:24:03.838Z,392
2017-10-29T10:25:12.873Z,248
2017-10-29T10:26:22.241Z,308
2017-10-29T10:27:31.273Z,568
2017-10-29T10:28:40.973Z,288
2017-10-29T10:29:50.009Z,124
2017-10-29T10:30:58.713Z,100
2017-10-29T10:32:07.745Z,76
2017-10-29T10:33:17.116Z,228
2017-10-29T10:34:26.824Z,204
2017-10-29T10:35:35.863Z,108
2017-10-29T10:36:44.897Z,72
2017-10-29T10:37:53.929Z,56
2017-10-29T10:39:03.630Z,44
2017-10-29T10:40:12.660Z,52
2017-10-29T10:41:22.354Z,56
2017-10-29T10:42:31.390Z,44
2017-10-29T10:43:40.761Z,40
2017-10-29T10:44:49.793Z,44
2017-10-29T10:45:58.830Z,40
2017-10-29T10:47:07.873Z,48
2017-10-29T10:48:16.910Z,56
2017-10-29T10:49:25.617Z,68
2017-10-29T10:50:35.019Z,76
2017-10-29T10:51:45.076Z,48
2017-10-29T10:52:54.788Z,32
2017-10-29T10:54:04.491Z,36
2017-10-29T10:55:13.527Z,36
2017-10-29T10:56:22.563Z,48
2017-10-29T10:57:32.259Z,48
2017-10-29T10:58:41.636Z,60
2017-10-29T10:59:50.654Z,80
2017-10-29T11:00:59.359Z,112
2017-10-29T11:02:08.393Z,144
2017-10-29T11:03:18.088Z,112
2017-10-29T11:04:27.656Z,160
2017-10-29T11:05:36.689Z,224
2017-10-29T11:06:45.716Z,264
2017-10-29T11:07:54.413Z,300
2017-10-29T11:09:03.441Z,340
2017-10-29T11:10:13.141Z,416
2017-10-29T11:11:22.504Z,640
2017-10-29T11:12:31.534Z,3852
2017-10-29T11:13:40.568Z,572
2017-10-29T11:14:49.928Z,2584
2017-10-29T11:15:59.297Z,3576
2017-10-29T11:17:08.655Z,3500
2017-10-29T11:18:18.013Z,3576
2017-10-29T11:19:27.045Z,2952
2017-10-29T11:20:35.746Z,3608
2017-10-29T11:21:44.446Z,3252
2017-10-29T11:22:53.477Z,3644
2017-10-29T11:24:02.844Z,3480
2017-10-29T11:25:11.875Z,3488
2017-10-29T11:26:21.235Z,3476
2017-10-29T11:27:30.602Z,3720
2017-10-29T11:28:39.970Z,1048
2017-10-29T11:29:49.003Z,420
2017-10-29T11:30:58.037Z,736
2017-10-29T11:32:07.082Z,960
2017-10-29T11:33:15.785Z,1876
2017-10-29T11:34:25.160Z,1596
2017-10-29T11:35:34.188Z,524
2017-10-29T11:36:43.224Z,496
2017-10-29T11:37:52.586Z,196
2017-10-29T11:39:01.658Z,204
2017-10-29T11:40:10.686Z,236
2017-10-29T11:41:19.714Z,468
2017-10-29T11:42:28.746Z,348
2017-10-29T11:43:38.111Z,352
2017-10-29T11:44:47.245Z,492
2017-10-29T11:45:56.616Z,404
2017-10-29T11:47:06.650Z,736
2017-10-29T11:48:16.014Z,772
2017-10-29T11:49:26.045Z,744
2017-10-29T11:50:34.756Z,740
2017-10-29T11:51:44.124Z,616
2017-10-29T11:52:53.484Z,664
2017-10-29T11:54:02.513Z,648
2017-10-29T11:55:11.541Z,436
2017-10-29T11:56:21.232Z,596
2017-10-29T11:57:30.597Z,628
2017-10-29T11:58:39.623Z,768
2017-10-29T11:59:48.994Z,340
2017-10-29T12:00:57.693Z,232
2017-10-29T12:02:06.723Z,192
2017-10-29T12:03:16.088Z,604
2017-10-29T12:04:26.128Z,700
2017-10-29T12:05:34.825Z,472
2017-10-29T12:06:43.863Z,288
2017-10-29T12:07:53.574Z,428
2017-10-29T12:09:03.599Z,472
2017-10-29T12:10:12.968Z,252
2017-10-29T12:11:22.337Z,204
2017-10-29T12:12:31.705Z,324
2017-10-29T12:13:40.735Z,400
2017-10-29T12:14:49.773Z,440
2017-10-29T12:15:58.808Z,272
2017-10-29T12:17:07.846Z,80
2017-10-29T12:18:16.883Z,52
2017-10-29T12:19:25.918Z,44
2017-10-29T12:20:35.959Z,36
2017-10-29T12:21:44.994Z,40
2017-10-29T12:22:54.361Z,64
2017-10-29T12:24:03.399Z,72
2017-10-29T12:25:12.436Z,44
2017-10-29T12:26:21.472Z,44
2017-10-29T12:27:30.503Z,56
2017-10-29T12:28:39.558Z,68
2017-10-29T12:29:48.918Z,64
2017-10-29T12:30:57.951Z,88
2017-10-29T12:32:07.324Z,88
2017-10-29T12:33:16.682Z,132
2017-10-29T12:34:26.044Z,64
2017-10-29T12:35:35.402Z,48
2017-10-29T12:36:44.437Z,44
2017-10-29T12:37:53.475Z,36
2017-10-29T12:39:02.836Z,36
2017-10-29T12:40:11.869Z,48
2017-10-29T12:41:21.569Z,64
2017-10-29T12:42:30.268Z,116
2017-10-29T12:43:39.293Z,188
2017-10-29T12:44:48.321Z,196
2017-10-29T12:45:57.018Z,132
2017-10-29T12:47:06.377Z,76
2017-10-29T12:48:15.733Z,68
2017-10-29T12:49:24.769Z,88
2017-10-29T12:50:33.796Z,180
2017-10-29T12:51:42.829Z,212
2017-10-29T12:52:51.531Z,136
2017-10-29T12:54:00.227Z,272
2017-10-29T12:55:08.927Z,212
2017-10-29T12:56:18.288Z,188
2017-10-29T12:57:27.320Z,312
2017-10-29T12:58:37.027Z,264
2017-10-29T12:59:46.062Z,284
2017-10-29T13:00:55.425Z,316
2017-10-29T13:02:04.792Z,288
2017-10-29T13:03:14.157Z,200
2017-10-29T13:04:23.183Z,260
2017-10-29T13:05:31.880Z,252
2017-10-29T13:06:41.249Z,244
2017-10-29T13:07:49.950Z,232
2017-10-29T13:08:59.327Z,228
2017-10-29T13:10:08.371Z,236
2017-10-29T13:11:17.404Z,228
2017-10-29T13:12:26.778Z,224
2017-10-29T13:13:35.804Z,244
2017-10-29T13:14:45.164Z,264
2017-10-29T13:15:54.194Z,184
2017-10-29T13:17:03.925Z,220
2017-10-29T13:18:12.590Z,284
2017-10-29T13:19:21.292Z,272
2017-10-29T13:20:30.325Z,340
2017-10-29T13:21:40.054Z,296
2017-10-29T13:22:48.754Z,208
2017-10-29T13:23:57.835Z,196
2017-10-29T13:25:07.534Z,156
2017-10-29T13:26:16.579Z,160
2017-10-29T13:27:25.949Z,252
2017-10-29T13:28:34.651Z,248
2017-10-29T13:29:44.018Z,292
2017-10-29T13:30:53.380Z,236
2017-10-29T13:32:02.413Z,240
2017-10-29T13:33:11.776Z,244
2017-10-29T13:34:20.810Z,204
2017-10-29T13:35:30.509Z,180
2017-10-29T13:36:39.540Z,184
2017-10-29T13:37:49.241Z,128
2017-10-29T13:38:57.946Z,208
2017-10-29T13:40:07.312Z,240
2017-10-29T13:41:16.012Z,164
2017-10-29T13:42:25.376Z,128
2017-10-29T13:43:34.743Z,128
2017-10-29T13:44:43.781Z,144
2017-10-29T13:45:52.488Z,168
2017-10-29T13:47:01.510Z,164
2017-10-29T13:48:10.903Z,164
2017-10-29T13:49:20.267Z,140
2017-10-29T13:50:29.302Z,128
2017-10-29T13:51:38.677Z,144
2017-10-29T13:52:48.051Z,104
2017-10-29T13:53:57.115Z,140
2017-10-29T13:55:06.153Z,144
2017-10-29T13:56:15.506Z,136
2017-10-29T13:57:24.535Z,140
2017-10-29T13:58:33.898Z,116
2017-10-29T13:59:42.928Z,172
2017-10-29T14:00:52.012Z,188
2017-10-29T14:02:00.714Z,140
2017-10-29T14:03:10.085Z,100
2017-10-29T14:04:19.121Z,120
2017-10-29T14:05:28.818Z,132
2017-10-29T14:06:38.193Z,136
2017-10-29T14:07:47.222Z,100
2017-10-29T14:08:56.586Z,84
2017-10-29T14:10:05.968Z,100
2017-10-29T14:11:15.671Z,124
2017-10-29T14:12:25.047Z,116
2017-10-29T14:13:34.416Z,96
2017-10-29T14:14:43.445Z,68
2017-10-29T14:15:52.142Z,80
2017-10-29T14:17:01.174Z,132
2017-10-29T14:18:09.876Z,148
2017-10-29T14:19:18.914Z,88
2017-10-29T14:20:27.943Z,84
2017-10-29T14:21:37.319Z,108
2017-10-29T14:22:46.348Z,104
2017-10-29T14:23:56.388Z,88
2017-10-29T14:25:05.420Z,72
2017-10-29T14:26:14.784Z,80
2017-10-29T14:27:23.486Z,64
2017-10-29T14:28:32.856Z,60
2017-10-29T14:29:41.557Z,44
2017-10-29T14:30:50.919Z,40
2017-10-29T14:31:59.948Z,40
2017-10-29T14:33:09.648Z,36
2017-10-29T14:34:19.343Z,48
2017-10-29T14:35:28.043Z,48
2017-10-29T14:36:37.078Z,60
2017-10-29T14:37:46.102Z,52
2017-10-29T14:38:55.132Z,48
2017-10-29T14:40:04.825Z,68
2017-10-29T14:41:14.202Z,76
2017-10-29T14:42:23.563Z,72
2017-10-29T14:43:32.264Z,72
2017-10-29T14:44:40.967Z,72
2017-10-29T14:45:49.999Z,64
2017-10-29T14:46:59.031Z,80
2017-10-29T14:48:08.067Z,72
2017-10-29T14:49:17.099Z,72
2017-10-29T14:50:25.798Z,64
2017-10-29T14:51:34.828Z,84
2017-10-29T14:52:44.184Z,80
2017-10-29T14:53:52.884Z,72
2017-10-29T14:55:02.251Z,64
2017-10-29T14:56:10.947Z,64
2017-10-29T14:57:20.305Z,60
2017-10-29T14:58:29.664Z,60
2017-10-29T14:59:38.694Z,76
2017-10-29T15:00:47.394Z,80
2017-10-29T15:01:57.107Z,80
2017-10-29T15:03:05.809Z,72
2017-10-29T15:04:15.509Z,64
2017-10-29T15:05:24.206Z,56
2017-10-29T15:06:32.904Z,48
2017-10-29T15:07:42.297Z,44
2017-10-29T15:08:52.001Z,48
2017-10-29T15:10:02.030Z,44
2017-10-29T15:11:11.071Z,36
2017-10-29T15:12:21.110Z,32
2017-10-29T15:13:30.470Z,40
2017-10-29T15:14:39.505Z,36
2017-10-29T15:15:48.869Z,32
2017-10-29T15:16:57.897Z,24
2017-10-29T15:18:07.263Z,20
2017-10-29T15:19:16.299Z,20
2017-10-29T15:20:26.006Z,24
2017-10-29T15:21:34.700Z,20
2017-10-29T15:22:44.099Z,20
2017-10-29T15:23:52.794Z,16
2017-10-29T15:25:01.825Z,16
2017-10-29T15:26:10.877Z,12
2017-10-29T15:27:20.237Z,12
2017-10-29T15:28:29.271Z,12
2017-10-29T15:29:37.969Z,16
2017-10-29T15:30:47.001Z,12
2017-10-29T15:31:55.699Z,12
2017-10-29T15:33:05.055Z,12
2017-10-29T15:34:14.422Z,12
2017-10-29T15:35:24.117Z,8
2017-10-29T15:36:33.151Z,8
2017-10-29T15:37:42.847Z,8
2017-10-29T15:38:52.898Z,4
2017-10-29T15:40:01.929Z,8
2017-10-29T15:41:10.631Z,12
2017-10-29T15:42:19.995Z,12
2017-10-29T15:43:29.029Z,16
2017-10-29T15:44:38.059Z,12
2017-10-29T15:45:46.761Z,12
2017-10-29T15:46:55.460Z,12
2017-10-29T15:48:04.157Z,12
2017-10-29T15:49:13.537Z,8
2017-10-29T15:50:23.237Z,12
2017-10-29T15:51:32.278Z,8
2017-10-29T15:52:41.647Z,8
2017-10-29T15:53:50.672Z,8
2017-10-29T15:54:59.370Z,12
2017-10-29T15:56:09.085Z,8
2017-10-29T15:57:18.452Z,8
2017-10-29T15:58:27.488Z,4
2017-10-29T15:59:37.181Z,4
2017-10-29T16:00:45.883Z,8
2017-10-29T16:01:55.584Z,8
2017-10-29T16:03:04.619Z,4
2017-10-29T16:04:13.320Z,4
2017-10-29T16:05:22.688Z,4
2017-10-29T16:06:31.387Z,4
2017-10-29T16:07:41.082Z,4
2017-10-29T16:08:50.111Z,4
2017-10-29T16:09:59.142Z,0
2017-10-29T16:11:08.520Z,4
2017-10-29T16:12:17.884Z,4
2017-10-29T16:13:27.594Z,4
2017-10-29T16:14:36.626Z,0
2017-10-29T16:15:45.663Z,0
2017-10-29T16:16:54.693Z,0
2017-10-29T16:18:04.075Z,0
2017-10-29T16:19:13.115Z,0
2017-10-29T16:20:22.517Z,0
2017-10-29T16:21:31.216Z,0
2017-10-29T16:22:40.264Z,0
2017-10-29T16:23:49.300Z,0
2017-10-29T16:24:58.678Z,0
2017-10-29T16:26:08.374Z,0
2017-10-29T16:27:17.073Z,0